KJZP

Pickens County Airport

Jasper, Georgia, USA
METAR KJZP 170555Z AUTO 00000KT 10SM CLR 02/M03 A3029 RMK AO2 6//// T00221030 10041 20010 400871023 PNO
Observed Flight Rules
Dec-17 @ 05:55 UTC (26 minutes ago) Visual Flight Rules
Wind Visibility Clouds
Calm 10 miles
  • Clear skies
Temperatures Readings
Current 2°C / 36°F
Dewpoint -3°C / 27°F
Humidity 70%
Altimeter 30.29" Hg
Pressure 1026 hPa
Elevation 468
METAR KJZP 170555Z AUTO 00000KT 10SM CLR 02/M03 A3029 RMK AO2 6//// T00221030 10041 20010 400871023 PNO
Observed Flight Rules
Dec-17 @ 05:55 UTC
(26 minutes ago)
VFR
Wind Visibility
Calm 10 miles
Clouds
  • Clear skies
Temperature Dewpoint
2°C / 36°F -3°C / 27°F
Humidity Altimeter Pressure
70% 30.29" Hg 1026 hPa